sensor_id;sensor_type;location;lat;lon;timestamp;P1;durP1;ratioP1;P2;durP2;ratioP2
2187;SDS011;1100;52.014;8.540;2023-02-23T00:01:24;32.55;;;15.60;;
2187;SDS011;1100;52.014;8.540;2023-02-23T00:03:52;28.83;;;14.57;;
2187;SDS011;1100;52.014;8.540;2023-02-23T00:06:20;36.20;;;16.23;;
2187;SDS011;1100;52.014;8.540;2023-02-23T00:08:45;27.57;;;14.60;;
2187;SDS011;1100;52.014;8.540;2023-02-23T00:11:16;28.17;;;15.18;;
2187;SDS011;1100;52.014;8.540;2023-02-23T00:13:42;29.83;;;15.02;;
2187;SDS011;1100;52.014;8.540;2023-02-23T00:16:11;32.30;;;14.63;;
2187;SDS011;1100;52.014;8.540;2023-02-23T00:18:45;31.42;;;14.88;;
2187;SDS011;1100;52.014;8.540;2023-02-23T00:21:15;28.80;;;14.90;;
2187;SDS011;1100;52.014;8.540;2023-02-23T00:23:46;32.67;;;16.83;;
2187;SDS011;1100;52.014;8.540;2023-02-23T00:26:17;31.90;;;16.05;;
2187;SDS011;1100;52.014;8.540;2023-02-23T00:28:44;32.47;;;16.33;;
2187;SDS011;1100;52.014;8.540;2023-02-23T00:31:11;32.22;;;16.90;;
2187;SDS011;1100;52.014;8.540;2023-02-23T00:33:37;34.03;;;16.60;;
2187;SDS011;1100;52.014;8.540;2023-02-23T00:36:07;32.97;;;17.25;;
2187;SDS011;1100;52.014;8.540;2023-02-23T00:38:35;33.42;;;17.58;;
2187;SDS011;1100;52.014;8.540;2023-02-23T00:41:05;33.30;;;16.40;;
2187;SDS011;1100;52.014;8.540;2023-02-23T00:43:35;35.85;;;17.75;;
2187;SDS011;1100;52.014;8.540;2023-02-23T00:46:03;39.03;;;19.20;;
2187;SDS011;1100;52.014;8.540;2023-02-23T00:48:32;35.03;;;18.25;;
2187;SDS011;1100;52.014;8.540;2023-02-23T00:50:59;37.03;;;19.40;;
2187;SDS011;1100;52.014;8.540;2023-02-23T00:53:26;39.60;;;18.73;;
2187;SDS011;1100;52.014;8.540;2023-02-23T00:55:52;41.80;;;20.50;;
2187;SDS011;1100;52.014;8.540;2023-02-23T00:58:18;42.72;;;21.17;;
2187;SDS011;1100;52.014;8.540;2023-02-23T01:00:43;41.97;;;21.73;;
2187;SDS011;1100;52.014;8.540;2023-02-23T01:03:09;42.40;;;21.10;;
2187;SDS011;1100;52.014;8.540;2023-02-23T01:05:34;40.50;;;21.77;;
2187;SDS011;1100;52.014;8.540;2023-02-23T01:07:59;48.23;;;23.13;;
2187;SDS011;1100;52.014;8.540;2023-02-23T01:10:25;44.90;;;22.27;;
2187;SDS011;1100;52.014;8.540;2023-02-23T01:12:50;46.20;;;23.67;;
2187;SDS011;1100;52.014;8.540;2023-02-23T01:15:17;45.55;;;22.90;;
2187;SDS011;1100;52.014;8.540;2023-02-23T01:17:43;46.95;;;23.60;;
2187;SDS011;1100;52.014;8.540;2023-02-23T01:20:13;48.07;;;22.97;;
2187;SDS011;1100;52.014;8.540;2023-02-23T01:22:47;48.47;;;23.65;;
2187;SDS011;1100;52.014;8.540;2023-02-23T01:25:14;46.05;;;22.45;;
2187;SDS011;1100;52.014;8.540;2023-02-23T01:27:40;46.30;;;23.48;;
2187;SDS011;1100;52.014;8.540;2023-02-23T01:30:08;46.97;;;22.83;;
2187;SDS011;1100;52.014;8.540;2023-02-23T01:32:36;46.22;;;23.13;;
2187;SDS011;1100;52.014;8.540;2023-02-23T01:35:08;46.17;;;23.13;;
2187;SDS011;1100;52.014;8.540;2023-02-23T01:37:36;47.88;;;23.67;;
2187;SDS011;1100;52.014;8.540;2023-02-23T01:40:07;47.67;;;23.80;;
2187;SDS011;1100;52.014;8.540;2023-02-23T01:42:38;48.37;;;23.60;;
2187;SDS011;1100;52.014;8.540;2023-02-23T01:45:20;46.40;;;23.40;;
2187;SDS011;1100;52.014;8.540;2023-02-23T01:47:53;48.70;;;23.30;;
2187;SDS011;1100;52.014;8.540;2023-02-23T01:50:22;49.53;;;25.15;;
2187;SDS011;1100;52.014;8.540;2023-02-23T01:52:50;49.92;;;24.52;;
2187;SDS011;1100;52.014;8.540;2023-02-23T01:55:16;49.03;;;23.23;;
2187;SDS011;1100;52.014;8.540;2023-02-23T01:57:48;44.22;;;23.00;;
2187;SDS011;1100;52.014;8.540;2023-02-23T02:00:17;47.63;;;22.83;;
2187;SDS011;1100;52.014;8.540;2023-02-23T02:02:44;48.70;;;23.83;;
2187;SDS011;1100;52.014;8.540;2023-02-23T02:05:12;48.87;;;24.27;;
2187;SDS011;1100;52.014;8.540;2023-02-23T02:07:41;52.28;;;24.70;;
2187;SDS011;1100;52.014;8.540;2023-02-23T02:10:11;51.05;;;25.77;;
2187;SDS011;1100;52.014;8.540;2023-02-23T02:12:54;46.60;;;24.10;;
2187;SDS011;1100;52.014;8.540;2023-02-23T02:15:22;52.70;;;25.52;;
2187;SDS011;1100;52.014;8.540;2023-02-23T02:31:55;47.95;;;24.20;;
2187;SDS011;1100;52.014;8.540;2023-02-23T02:37:41;48.53;;;23.93;;
2187;SDS011;1100;52.014;8.540;2023-02-23T02:40:42;46.75;;;24.38;;
2187;SDS011;1100;52.014;8.540;2023-02-23T02:46:12;52.40;;;26.05;;
2187;SDS011;1100;52.014;8.540;2023-02-23T02:48:56;54.53;;;26.00;;
2187;SDS011;1100;52.014;8.540;2023-02-23T02:51:43;50.83;;;25.23;;
2187;SDS011;1100;52.014;8.540;2023-02-23T02:56:54;53.55;;;25.80;;
2187;SDS011;1100;52.014;8.540;2023-02-23T02:59:24;49.60;;;24.60;;
2187;SDS011;1100;52.014;8.540;2023-02-23T03:02:12;51.03;;;26.52;;
2187;SDS011;1100;52.014;8.540;2023-02-23T03:04:59;59.40;;;26.47;;
2187;SDS011;1100;52.014;8.540;2023-02-23T03:10:35;54.38;;;25.98;;
2187;SDS011;1100;52.014;8.540;2023-02-23T03:13:48;56.83;;;27.65;;
2187;SDS011;1100;52.014;8.540;2023-02-23T03:17:03;58.10;;;27.75;;
2187;SDS011;1100;52.014;8.540;2023-02-23T03:26:06;54.15;;;26.00;;
2187;SDS011;1100;52.014;8.540;2023-02-23T03:29:13;52.28;;;24.98;;
2187;SDS011;1100;52.014;8.540;2023-02-23T03:32:10;54.10;;;26.67;;
2187;SDS011;1100;52.014;8.540;2023-02-23T03:35:12;50.87;;;25.83;;
2187;SDS011;1100;52.014;8.540;2023-02-23T03:38:18;51.13;;;24.65;;
2187;SDS011;1100;52.014;8.540;2023-02-23T03:41:13;51.03;;;25.33;;
2187;SDS011;1100;52.014;8.540;2023-02-23T03:44:11;52.75;;;24.90;;
2187;SDS011;1100;52.014;8.540;2023-02-23T03:47:01;49.05;;;24.35;;
2187;SDS011;1100;52.014;8.540;2023-02-23T03:49:48;48.47;;;24.83;;
2187;SDS011;1100;52.014;8.540;2023-02-23T03:52:39;51.63;;;25.80;;
2187;SDS011;1100;52.014;8.540;2023-02-23T03:55:28;50.58;;;25.25;;
2187;SDS011;1100;52.014;8.540;2023-02-23T03:58:17;55.33;;;25.35;;
2187;SDS011;1100;52.014;8.540;2023-02-23T04:01:08;61.50;;;26.60;;
2187;SDS011;1100;52.014;8.540;2023-02-23T04:03:54;48.70;;;23.97;;
2187;SDS011;1100;52.014;8.540;2023-02-23T04:06:42;50.40;;;25.52;;
2187;SDS011;1100;52.014;8.540;2023-02-23T04:09:28;52.05;;;26.02;;
2187;SDS011;1100;52.014;8.540;2023-02-23T04:12:20;50.22;;;25.80;;
2187;SDS011;1100;52.014;8.540;2023-02-23T04:15:10;48.63;;;24.38;;
2187;SDS011;1100;52.014;8.540;2023-02-23T04:17:39;55.17;;;26.27;;
2187;SDS011;1100;52.014;8.540;2023-02-23T04:20:07;50.70;;;26.02;;
2187;SDS011;1100;52.014;8.540;2023-02-23T04:22:34;49.92;;;24.95;;
2187;SDS011;1100;52.014;8.540;2023-02-23T04:25:00;54.93;;;25.87;;
2187;SDS011;1100;52.014;8.540;2023-02-23T04:27:25;51.53;;;26.20;;
2187;SDS011;1100;52.014;8.540;2023-02-23T04:29:50;55.70;;;27.43;;
2187;SDS011;1100;52.014;8.540;2023-02-23T04:32:17;54.78;;;26.42;;
2187;SDS011;1100;52.014;8.540;2023-02-23T04:34:44;52.40;;;26.08;;
2187;SDS011;1100;52.014;8.540;2023-02-23T04:37:10;60.40;;;28.63;;
2187;SDS011;1100;52.014;8.540;2023-02-23T04:39:36;57.50;;;27.13;;
2187;SDS011;1100;52.014;8.540;2023-02-23T04:42:01;57.43;;;27.60;;
2187;SDS011;1100;52.014;8.540;2023-02-23T04:44:27;57.90;;;28.47;;
2187;SDS011;1100;52.014;8.540;2023-02-23T04:46:52;59.63;;;28.83;;
2187;SDS011;1100;52.014;8.540;2023-02-23T04:49:17;56.30;;;27.63;;
2187;SDS011;1100;52.014;8.540;2023-02-23T04:51:43;59.45;;;28.15;;
2187;SDS011;1100;52.014;8.540;2023-02-23T04:54:08;57.27;;;28.07;;
2187;SDS011;1100;52.014;8.540;2023-02-23T04:56:33;62.77;;;28.50;;
2187;SDS011;1100;52.014;8.540;2023-02-23T04:58:59;58.50;;;27.83;;
2187;SDS011;1100;52.014;8.540;2023-02-23T05:01:24;61.60;;;27.20;;
2187;SDS011;1100;52.014;8.540;2023-02-23T05:03:51;59.08;;;28.73;;
2187;SDS011;1100;52.014;8.540;2023-02-23T05:06:16;57.35;;;27.73;;
2187;SDS011;1100;52.014;8.540;2023-02-23T05:08:42;60.77;;;27.47;;
2187;SDS011;1100;52.014;8.540;2023-02-23T05:11:08;59.40;;;27.38;;
2187;SDS011;1100;52.014;8.540;2023-02-23T05:13:34;61.20;;;27.50;;
2187;SDS011;1100;52.014;8.540;2023-02-23T05:15:59;60.80;;;28.70;;
2187;SDS011;1100;52.014;8.540;2023-02-23T05:18:25;59.43;;;28.10;;
2187;SDS011;1100;52.014;8.540;2023-02-23T05:20:51;59.45;;;29.25;;
2187;SDS011;1100;52.014;8.540;2023-02-23T05:23:18;69.28;;;31.20;;
2187;SDS011;1100;52.014;8.540;2023-02-23T05:25:44;61.33;;;28.80;;
2187;SDS011;1100;52.014;8.540;2023-02-23T05:28:09;69.80;;;31.35;;
2187;SDS011;1100;52.014;8.540;2023-02-23T05:30:34;68.47;;;31.63;;
2187;SDS011;1100;52.014;8.540;2023-02-23T05:33:00;72.00;;;32.10;;
2187;SDS011;1100;52.014;8.540;2023-02-23T05:35:26;70.53;;;31.02;;
2187;SDS011;1100;52.014;8.540;2023-02-23T05:37:51;64.67;;;29.57;;
2187;SDS011;1100;52.014;8.540;2023-02-23T05:40:16;65.33;;;29.57;;
2187;SDS011;1100;52.014;8.540;2023-02-23T05:42:42;75.10;;;31.33;;
2187;SDS011;1100;52.014;8.540;2023-02-23T05:45:07;76.47;;;31.83;;
2187;SDS011;1100;52.014;8.540;2023-02-23T05:47:33;69.30;;;31.17;;
2187;SDS011;1100;52.014;8.540;2023-02-23T05:50:03;67.40;;;29.10;;
2187;SDS011;1100;52.014;8.540;2023-02-23T05:52:30;68.45;;;32.33;;
2187;SDS011;1100;52.014;8.540;2023-02-23T05:54:55;69.83;;;31.47;;
2187;SDS011;1100;52.014;8.540;2023-02-23T05:57:20;76.27;;;33.10;;
2187;SDS011;1100;52.014;8.540;2023-02-23T05:59:46;70.07;;;31.57;;
2187;SDS011;1100;52.014;8.540;2023-02-23T06:02:11;75.10;;;30.97;;
2187;SDS011;1100;52.014;8.540;2023-02-23T06:04:36;70.20;;;30.33;;
2187;SDS011;1100;52.014;8.540;2023-02-23T06:07:01;70.77;;;31.77;;
2187;SDS011;1100;52.014;8.540;2023-02-23T06:09:27;69.70;;;30.63;;
2187;SDS011;1100;52.014;8.540;2023-02-23T06:11:52;70.40;;;31.27;;
2187;SDS011;1100;52.014;8.540;2023-02-23T06:14:18;66.23;;;29.23;;
2187;SDS011;1100;52.014;8.540;2023-02-23T06:16:43;74.93;;;32.80;;
2187;SDS011;1100;52.014;8.540;2023-02-23T06:19:09;69.57;;;30.60;;
2187;SDS011;1100;52.014;8.540;2023-02-23T06:21:35;69.70;;;31.10;;
2187;SDS011;1100;52.014;8.540;2023-02-23T06:24:00;68.40;;;30.90;;
2187;SDS011;1100;52.014;8.540;2023-02-23T06:26:26;76.53;;;32.30;;
2187;SDS011;1100;52.014;8.540;2023-02-23T06:28:52;73.47;;;32.03;;
2187;SDS011;1100;52.014;8.540;2023-02-23T06:31:17;70.07;;;31.00;;
2187;SDS011;1100;52.014;8.540;2023-02-23T06:33:42;72.80;;;30.92;;
2187;SDS011;1100;52.014;8.540;2023-02-23T06:36:08;71.77;;;31.77;;
2187;SDS011;1100;52.014;8.540;2023-02-23T06:38:34;74.83;;;31.20;;
2187;SDS011;1100;52.014;8.540;2023-02-23T06:41:05;73.63;;;32.63;;
2187;SDS011;1100;52.014;8.540;2023-02-23T06:43:34;70.88;;;32.15;;
2187;SDS011;1100;52.014;8.540;2023-02-23T06:46:00;79.07;;;32.80;;
2187;SDS011;1100;52.014;8.540;2023-02-23T06:48:27;75.73;;;33.17;;
2187;SDS011;1100;52.014;8.540;2023-02-23T06:50:53;85.30;;;33.80;;
2187;SDS011;1100;52.014;8.540;2023-02-23T06:53:18;80.75;;;33.65;;
2187;SDS011;1100;52.014;8.540;2023-02-23T06:55:44;83.57;;;35.13;;
2187;SDS011;1100;52.014;8.540;2023-02-23T06:58:10;80.97;;;34.05;;
2187;SDS011;1100;52.014;8.540;2023-02-23T07:00:35;84.87;;;33.90;;
2187;SDS011;1100;52.014;8.540;2023-02-23T07:03:03;86.18;;;34.92;;
2187;SDS011;1100;52.014;8.540;2023-02-23T07:05:28;88.27;;;34.53;;
2187;SDS011;1100;52.014;8.540;2023-02-23T07:07:53;86.37;;;35.80;;
2187;SDS011;1100;52.014;8.540;2023-02-23T07:10:19;93.60;;;36.30;;
2187;SDS011;1100;52.014;8.540;2023-02-23T07:12:44;83.78;;;34.95;;
2187;SDS011;1100;52.014;8.540;2023-02-23T07:15:10;86.30;;;33.78;;
2187;SDS011;1100;52.014;8.540;2023-02-23T07:17:36;86.20;;;35.03;;
2187;SDS011;1100;52.014;8.540;2023-02-23T07:20:01;87.80;;;35.30;;
2187;SDS011;1100;52.014;8.540;2023-02-23T07:22:26;89.13;;;35.27;;
2187;SDS011;1100;52.014;8.540;2023-02-23T07:24:54;90.30;;;37.38;;
2187;SDS011;1100;52.014;8.540;2023-02-23T07:27:23;87.15;;;34.70;;
2187;SDS011;1100;52.014;8.540;2023-02-23T07:29:48;86.27;;;36.27;;
2187;SDS011;1100;52.014;8.540;2023-02-23T07:32:14;93.07;;;36.50;;
2187;SDS011;1100;52.014;8.540;2023-02-23T07:34:39;88.93;;;35.33;;
2187;SDS011;1100;52.014;8.540;2023-02-23T07:37:04;92.03;;;35.83;;
2187;SDS011;1100;52.014;8.540;2023-02-23T07:39:30;88.97;;;35.40;;
2187;SDS011;1100;52.014;8.540;2023-02-23T07:41:55;84.83;;;35.67;;
2187;SDS011;1100;52.014;8.540;2023-02-23T07:44:21;87.75;;;36.00;;
2187;SDS011;1100;52.014;8.540;2023-02-23T07:46:47;89.37;;;35.47;;
2187;SDS011;1100;52.014;8.540;2023-02-23T07:49:13;82.68;;;34.22;;
2187;SDS011;1100;52.014;8.540;2023-02-23T07:51:39;88.47;;;35.60;;
2187;SDS011;1100;52.014;8.540;2023-02-23T07:54:04;88.10;;;35.40;;
2187;SDS011;1100;52.014;8.540;2023-02-23T07:56:30;82.57;;;34.50;;
2187;SDS011;1100;52.014;8.540;2023-02-23T07:58:56;78.97;;;33.53;;
2187;SDS011;1100;52.014;8.540;2023-02-23T08:01:22;86.17;;;34.93;;
2187;SDS011;1100;52.014;8.540;2023-02-23T08:03:48;88.10;;;35.00;;
2187;SDS011;1100;52.014;8.540;2023-02-23T08:06:18;81.55;;;34.53;;
2187;SDS011;1100;52.014;8.540;2023-02-23T08:08:44;72.53;;;31.60;;
2187;SDS011;1100;52.014;8.540;2023-02-23T08:11:09;82.50;;;34.37;;
2187;SDS011;1100;52.014;8.540;2023-02-23T08:13:35;75.53;;;32.90;;
2187;SDS011;1100;52.014;8.540;2023-02-23T08:16:01;82.97;;;32.87;;
2187;SDS011;1100;52.014;8.540;2023-02-23T08:18:27;84.57;;;33.97;;
2187;SDS011;1100;52.014;8.540;2023-02-23T08:20:59;80.18;;;34.40;;
2187;SDS011;1100;52.014;8.540;2023-02-23T08:23:25;78.87;;;33.17;;
2187;SDS011;1100;52.014;8.540;2023-02-23T08:25:51;80.10;;;32.83;;
2187;SDS011;1100;52.014;8.540;2023-02-23T08:28:18;81.22;;;34.03;;
2187;SDS011;1100;52.014;8.540;2023-02-23T08:30:43;80.20;;;32.70;;
2187;SDS011;1100;52.014;8.540;2023-02-23T08:33:09;76.53;;;33.67;;
2187;SDS011;1100;52.014;8.540;2023-02-23T08:35:34;80.43;;;32.57;;
2187;SDS011;1100;52.014;8.540;2023-02-23T08:37:59;68.63;;;32.27;;
2187;SDS011;1100;52.014;8.540;2023-02-23T08:40:25;78.73;;;32.47;;
2187;SDS011;1100;52.014;8.540;2023-02-23T08:42:50;79.15;;;33.33;;
2187;SDS011;1100;52.014;8.540;2023-02-23T08:45:16;73.27;;;32.07;;
2187;SDS011;1100;52.014;8.540;2023-02-23T08:47:42;76.75;;;32.15;;
2187;SDS011;1100;52.014;8.540;2023-02-23T08:50:08;68.90;;;31.60;;
2187;SDS011;1100;52.014;8.540;2023-02-23T08:52:35;66.57;;;28.03;;
2187;SDS011;1100;52.014;8.540;2023-02-23T08:55:00;72.03;;;30.00;;
2187;SDS011;1100;52.014;8.540;2023-02-23T08:57:26;69.83;;;30.97;;
2187;SDS011;1100;52.014;8.540;2023-02-23T08:59:51;73.63;;;30.83;;
2187;SDS011;1100;52.014;8.540;2023-02-23T09:02:16;68.67;;;30.23;;
2187;SDS011;1100;52.014;8.540;2023-02-23T09:04:42;71.00;;;31.50;;
2187;SDS011;1100;52.014;8.540;2023-02-23T09:07:08;69.37;;;30.27;;
2187;SDS011;1100;52.014;8.540;2023-02-23T09:09:38;69.60;;;30.52;;
2187;SDS011;1100;52.014;8.540;2023-02-23T09:12:03;66.57;;;30.40;;
2187;SDS011;1100;52.014;8.540;2023-02-23T09:14:29;67.90;;;30.00;;
2187;SDS011;1100;52.014;8.540;2023-02-23T09:16:56;70.33;;;29.53;;
2187;SDS011;1100;52.014;8.540;2023-02-23T09:19:21;69.53;;;30.83;;
2187;SDS011;1100;52.014;8.540;2023-02-23T09:21:46;69.90;;;29.40;;
2187;SDS011;1100;52.014;8.540;2023-02-23T09:24:12;65.27;;;29.80;;
2187;SDS011;1100;52.014;8.540;2023-02-23T09:26:37;68.77;;;30.40;;
2187;SDS011;1100;52.014;8.540;2023-02-23T09:29:04;69.15;;;30.70;;
2187;SDS011;1100;52.014;8.540;2023-02-23T09:31:31;65.30;;;29.77;;
2187;SDS011;1100;52.014;8.540;2023-02-23T09:33:57;62.50;;;28.95;;
2187;SDS011;1100;52.014;8.540;2023-02-23T09:36:24;64.57;;;30.65;;
2187;SDS011;1100;52.014;8.540;2023-02-23T09:38:51;59.20;;;28.67;;
2187;SDS011;1100;52.014;8.540;2023-02-23T09:41:44;63.05;;;27.58;;
2187;SDS011;1100;52.014;8.540;2023-02-23T09:44:18;58.43;;;27.73;;
2187;SDS011;1100;52.014;8.540;2023-02-23T09:46:54;57.22;;;26.92;;
2187;SDS011;1100;52.014;8.540;2023-02-23T09:49:24;59.45;;;29.08;;
2187;SDS011;1100;52.014;8.540;2023-02-23T09:51:55;58.88;;;27.55;;
2187;SDS011;1100;52.014;8.540;2023-02-23T09:54:23;56.25;;;27.48;;
2187;SDS011;1100;52.014;8.540;2023-02-23T09:56:52;53.97;;;27.40;;
2187;SDS011;1100;52.014;8.540;2023-02-23T09:59:20;61.67;;;27.98;;
2187;SDS011;1100;52.014;8.540;2023-02-23T10:07:00;57.38;;;27.00;;
2187;SDS011;1100;52.014;8.540;2023-02-23T10:21:09;52.03;;;23.50;;
2187;SDS011;1100;52.014;8.540;2023-02-23T10:23:56;55.30;;;22.77;;
2187;SDS011;1100;52.014;8.540;2023-02-23T10:26:26;57.67;;;22.97;;
2187;SDS011;1100;52.014;8.540;2023-02-23T10:28:59;55.75;;;21.98;;
2187;SDS011;1100;52.014;8.540;2023-02-23T10:31:29;55.23;;;21.90;;
2187;SDS011;1100;52.014;8.540;2023-02-23T10:34:03;52.83;;;20.65;;
2187;SDS011;1100;52.014;8.540;2023-02-23T10:36:38;57.53;;;21.27;;
2187;SDS011;1100;52.014;8.540;2023-02-23T10:39:08;56.05;;;20.80;;
2187;SDS011;1100;52.014;8.540;2023-02-23T10:41:36;58.38;;;21.05;;
2187;SDS011;1100;52.014;8.540;2023-02-23T10:44:03;60.67;;;19.40;;
2187;SDS011;1100;52.014;8.540;2023-02-23T10:46:34;55.13;;;19.55;;
2187;SDS011;1100;52.014;8.540;2023-02-23T10:49:03;58.58;;;20.88;;
2187;SDS011;1100;52.014;8.540;2023-02-23T10:51:31;67.22;;;21.25;;
2187;SDS011;1100;52.014;8.540;2023-02-23T10:54:16;64.65;;;20.90;;
2187;SDS011;1100;52.014;8.540;2023-02-23T10:56:57;65.97;;;20.63;;
2187;SDS011;1100;52.014;8.540;2023-02-23T10:59:23;65.13;;;20.67;;
2187;SDS011;1100;52.014;8.540;2023-02-23T11:01:48;63.73;;;20.57;;
2187;SDS011;1100;52.014;8.540;2023-02-23T11:06:42;66.32;;;21.48;;
2187;SDS011;1100;52.014;8.540;2023-02-23T11:09:32;64.17;;;21.60;;
2187;SDS011;1100;52.014;8.540;2023-02-23T11:12:00;62.67;;;20.17;;
2187;SDS011;1100;52.014;8.540;2023-02-23T11:14:28;67.10;;;21.08;;
2187;SDS011;1100;52.014;8.540;2023-02-23T11:16:54;61.35;;;20.55;;
2187;SDS011;1100;52.014;8.540;2023-02-23T11:19:28;64.38;;;20.48;;
2187;SDS011;1100;52.014;8.540;2023-02-23T11:21:58;59.88;;;19.42;;
2187;SDS011;1100;52.014;8.540;2023-02-23T11:26:56;55.95;;;19.45;;
2187;SDS011;1100;52.014;8.540;2023-02-23T11:29:39;51.28;;;18.95;;
2187;SDS011;1100;52.014;8.540;2023-02-23T11:32:11;56.92;;;18.55;;
2187;SDS011;1100;52.014;8.540;2023-02-23T11:34:40;57.55;;;20.33;;
2187;SDS011;1100;52.014;8.540;2023-02-23T11:39:54;56.13;;;19.45;;
2187;SDS011;1100;52.014;8.540;2023-02-23T11:42:22;55.83;;;19.20;;
2187;SDS011;1100;52.014;8.540;2023-02-23T11:47:38;53.92;;;19.42;;
2187;SDS011;1100;52.014;8.540;2023-02-23T11:50:05;48.40;;;19.27;;
2187;SDS011;1100;52.014;8.540;2023-02-23T11:52:32;46.95;;;18.88;;
2187;SDS011;1100;52.014;8.540;2023-02-23T11:55:01;43.80;;;19.20;;
2187;SDS011;1100;52.014;8.540;2023-02-23T11:57:32;44.45;;;18.48;;
2187;SDS011;1100;52.014;8.540;2023-02-23T12:00:00;44.28;;;18.20;;
2187;SDS011;1100;52.014;8.540;2023-02-23T12:02:33;40.70;;;17.73;;
2187;SDS011;1100;52.014;8.540;2023-02-23T12:05:16;39.83;;;18.25;;
2187;SDS011;1100;52.014;8.540;2023-02-23T12:08:03;41.22;;;18.02;;
2187;SDS011;1100;52.014;8.540;2023-02-23T12:10:38;37.58;;;17.15;;
2187;SDS011;1100;52.014;8.540;2023-02-23T12:22:22;39.63;;;17.35;;
2187;SDS011;1100;52.014;8.540;2023-02-23T12:32:16;33.93;;;15.00;;
2187;SDS011;1100;52.014;8.540;2023-02-23T12:35:05;36.90;;;16.60;;
2187;SDS011;1100;52.014;8.540;2023-02-23T12:37:44;36.42;;;17.33;;
2187;SDS011;1100;52.014;8.540;2023-02-23T12:40:18;36.13;;;17.05;;
2187;SDS011;1100;52.014;8.540;2023-02-23T12:42:53;39.90;;;18.55;;
2187;SDS011;1100;52.014;8.540;2023-02-23T12:47:54;38.15;;;17.17;;
2187;SDS011;1100;52.014;8.540;2023-02-23T12:50:30;37.85;;;16.95;;
2187;SDS011;1100;52.014;8.540;2023-02-23T12:55:36;38.83;;;16.33;;
2187;SDS011;1100;52.014;8.540;2023-02-23T13:01:03;38.75;;;17.27;;
2187;SDS011;1100;52.014;8.540;2023-02-23T13:12:28;35.40;;;15.57;;
2187;SDS011;1100;52.014;8.540;2023-02-23T13:17:46;34.75;;;15.10;;
2187;SDS011;1100;52.014;8.540;2023-02-23T13:20:22;34.90;;;14.70;;
2187;SDS011;1100;52.014;8.540;2023-02-23T13:26:38;34.60;;;14.30;;
2187;SDS011;1100;52.014;8.540;2023-02-23T13:31:32;31.70;;;12.32;;
2187;SDS011;1100;52.014;8.540;2023-02-23T13:34:00;27.38;;;11.90;;
2187;SDS011;1100;52.014;8.540;2023-02-23T13:36:28;32.13;;;12.85;;
2187;SDS011;1100;52.014;8.540;2023-02-23T13:41:39;28.35;;;11.93;;
2187;SDS011;1100;52.014;8.540;2023-02-23T13:44:15;27.35;;;12.27;;
2187;SDS011;1100;52.014;8.540;2023-02-23T13:46:52;29.00;;;11.40;;
2187;SDS011;1100;52.014;8.540;2023-02-23T13:49:37;28.67;;;11.45;;
2187;SDS011;1100;52.014;8.540;2023-02-23T13:52:25;29.30;;;11.43;;
2187;SDS011;1100;52.014;8.540;2023-02-23T13:54:58;25.73;;;10.57;;
2187;SDS011;1100;52.014;8.540;2023-02-23T13:57:27;25.90;;;10.43;;
2187;SDS011;1100;52.014;8.540;2023-02-23T13:59:53;26.77;;;10.85;;
2187;SDS011;1100;52.014;8.540;2023-02-23T14:04:47;26.48;;;10.88;;
2187;SDS011;1100;52.014;8.540;2023-02-23T14:07:20;25.40;;;8.90;;
2187;SDS011;1100;52.014;8.540;2023-02-23T14:09:58;27.17;;;10.10;;
2187;SDS011;1100;52.014;8.540;2023-02-23T14:12:37;23.50;;;9.60;;
2187;SDS011;1100;52.014;8.540;2023-02-23T14:17:55;28.25;;;10.07;;
2187;SDS011;1100;52.014;8.540;2023-02-23T14:20:41;31.25;;;10.90;;
2187;SDS011;1100;52.014;8.540;2023-02-23T14:31:17;37.25;;;12.07;;
2187;SDS011;1100;52.014;8.540;2023-02-23T14:41:24;33.23;;;11.10;;
2187;SDS011;1100;52.014;8.540;2023-02-23T14:46:59;30.35;;;10.95;;
2187;SDS011;1100;52.014;8.540;2023-02-23T14:49:25;29.83;;;10.75;;
2187;SDS011;1100;52.014;8.540;2023-02-23T14:51:55;31.77;;;10.57;;
2187;SDS011;1100;52.014;8.540;2023-02-23T14:56:57;29.58;;;9.88;;
2187;SDS011;1100;52.014;8.540;2023-02-23T14:59:26;33.42;;;11.32;;
2187;SDS011;1100;52.014;8.540;2023-02-23T15:01:54;30.60;;;10.63;;
2187;SDS011;1100;52.014;8.540;2023-02-23T15:04:24;27.90;;;8.98;;
2187;SDS011;1100;52.014;8.540;2023-02-23T15:06:56;25.73;;;8.90;;
2187;SDS011;1100;52.014;8.540;2023-02-23T15:11:59;25.17;;;8.80;;
2187;SDS011;1100;52.014;8.540;2023-02-23T15:14:34;27.52;;;9.70;;
2187;SDS011;1100;52.014;8.540;2023-02-23T15:17:02;27.55;;;8.88;;
2187;SDS011;1100;52.014;8.540;2023-02-23T15:19:27;24.77;;;9.10;;
2187;SDS011;1100;52.014;8.540;2023-02-23T15:21:58;28.15;;;8.93;;
2187;SDS011;1100;52.014;8.540;2023-02-23T15:24:30;26.03;;;9.00;;
2187;SDS011;1100;52.014;8.540;2023-02-23T15:27:13;24.67;;;7.63;;
2187;SDS011;1100;52.014;8.540;2023-02-23T15:29:41;26.45;;;8.35;;
2187;SDS011;1100;52.014;8.540;2023-02-23T15:32:10;25.20;;;8.33;;
2187;SDS011;1100;52.014;8.540;2023-02-23T15:34:41;26.17;;;8.98;;
2187;SDS011;1100;52.014;8.540;2023-02-23T15:37:10;25.97;;;8.73;;
2187;SDS011;1100;52.014;8.540;2023-02-23T15:39:46;25.00;;;8.43;;
2187;SDS011;1100;52.014;8.540;2023-02-23T15:42:18;25.48;;;8.10;;
2187;SDS011;1100;52.014;8.540;2023-02-23T15:44:55;23.67;;;7.87;;
2187;SDS011;1100;52.014;8.540;2023-02-23T15:47:24;24.75;;;8.07;;
2187;SDS011;1100;52.014;8.540;2023-02-23T15:49:57;28.65;;;8.32;;
2187;SDS011;1100;52.014;8.540;2023-02-23T15:52:26;23.80;;;7.70;;
2187;SDS011;1100;52.014;8.540;2023-02-23T15:54:58;28.07;;;8.00;;
2187;SDS011;1100;52.014;8.540;2023-02-23T15:57:40;25.52;;;8.63;;
2187;SDS011;1100;52.014;8.540;2023-02-23T16:00:13;25.20;;;7.57;;
2187;SDS011;1100;52.014;8.540;2023-02-23T16:02:43;28.00;;;8.10;;
2187;SDS011;1100;52.014;8.540;2023-02-23T16:05:19;29.50;;;9.82;;
2187;SDS011;1100;52.014;8.540;2023-02-23T16:07:45;29.63;;;9.13;;
2187;SDS011;1100;52.014;8.540;2023-02-23T16:10:21;29.00;;;8.77;;
2187;SDS011;1100;52.014;8.540;2023-02-23T16:12:49;28.92;;;9.50;;
2187;SDS011;1100;52.014;8.540;2023-02-23T16:15:27;27.70;;;9.70;;
2187;SDS011;1100;52.014;8.540;2023-02-23T16:18:04;30.88;;;10.18;;
2187;SDS011;1100;52.014;8.540;2023-02-23T16:20:41;30.23;;;8.90;;
2187;SDS011;1100;52.014;8.540;2023-02-23T16:26:00;35.20;;;10.10;;
2187;SDS011;1100;52.014;8.540;2023-02-23T16:28:41;32.05;;;9.40;;
2187;SDS011;1100;52.014;8.540;2023-02-23T16:31:08;29.23;;;9.02;;
2187;SDS011;1100;52.014;8.540;2023-02-23T16:33:42;30.07;;;9.00;;
2187;SDS011;1100;52.014;8.540;2023-02-23T16:38:35;28.47;;;9.17;;
2187;SDS011;1100;52.014;8.540;2023-02-23T16:41:04;33.60;;;9.40;;
2187;SDS011;1100;52.014;8.540;2023-02-23T16:43:33;29.40;;;8.82;;
2187;SDS011;1100;52.014;8.540;2023-02-23T16:45:59;32.23;;;9.93;;
2187;SDS011;1100;52.014;8.540;2023-02-23T16:48:25;33.50;;;9.90;;
2187;SDS011;1100;52.014;8.540;2023-02-23T16:50:50;27.60;;;8.53;;
2187;SDS011;1100;52.014;8.540;2023-02-23T16:53:16;28.93;;;8.30;;
2187;SDS011;1100;52.014;8.540;2023-02-23T16:55:44;34.03;;;10.07;;
2187;SDS011;1100;52.014;8.540;2023-02-23T16:58:20;30.48;;;10.30;;
2187;SDS011;1100;52.014;8.540;2023-02-23T17:00:48;27.83;;;9.77;;
2187;SDS011;1100;52.014;8.540;2023-02-23T17:03:16;35.58;;;12.15;;
2187;SDS011;1100;52.014;8.540;2023-02-23T17:05:44;28.60;;;10.40;;
2187;SDS011;1100;52.014;8.540;2023-02-23T17:08:10;39.72;;;12.90;;
2187;SDS011;1100;52.014;8.540;2023-02-23T17:10:36;34.43;;;12.17;;
2187;SDS011;1100;52.014;8.540;2023-02-23T17:13:03;34.90;;;14.20;;
2187;SDS011;1100;52.014;8.540;2023-02-23T17:15:31;31.10;;;10.77;;
2187;SDS011;1100;52.014;8.540;2023-02-23T17:17:58;29.65;;;10.05;;
2187;SDS011;1100;52.014;8.540;2023-02-23T17:20:24;35.13;;;13.07;;
2187;SDS011;1100;52.014;8.540;2023-02-23T17:22:53;29.20;;;9.88;;
2187;SDS011;1100;52.014;8.540;2023-02-23T17:25:20;29.43;;;9.43;;
2187;SDS011;1100;52.014;8.540;2023-02-23T17:27:48;33.00;;;10.55;;
2187;SDS011;1100;52.014;8.540;2023-02-23T17:30:15;27.63;;;9.80;;